CheckWX is a tool to help pilots better visualize weather data.  It is not intended as a substitute for an official pre-flight weather briefing.

04:07:48 UTC

OMDB TAF
Dubai International Airport
Dubai, United Arab Emirates
TAF OMDB 282257Z 2900/0106 20005KT 8000 SCT020 PROB30 2901/2905 4000 HZ BKN008 BECMG 2909/2911 33010KT BECMG 2916/2918 12005KT PROB30 2922/0100 4000 HZ BKN008 PROB30 0100/0105 1500 BR BKN003

Feb-29@
00:00 UTC

Feb-29 @ 00:00 UTC

Feb-29@
09:00 UTC

Feb-29 @ 09:00 UTC

TAF OMDB 282257Z 2900/0106 20005KT 8000 SCT020
Wind
  • 200° at 5 KTS
Cloud Levels
  • Scattered at 2,000' AGL

Feb-29@
01:00 UTC

Feb-29 @ 01:00 UTC

Feb-29@
05:00 UTC

Feb-29 @ 05:00 UTC

PROB30 2901/2905 4000 HZ BKN008

Probable - 30% Likelihood

Probable - 30% Likelihood during this time.

Conditions
Haze
Cloud Levels
  • Broken at 800' AGL

Feb-29@
09:00 UTC

Feb-29 @ 09:00 UTC

Feb-29@
16:00 UTC

Feb-29 @ 16:00 UTC

BECMG 2909/2911 33010KT

Becoming

Becoming Conditions expected by Sat, Feb 29, 2020 @ 11:00 UTC

Wind
  • 330° at 10 KTS
Cloud Levels
  • Scattered at 2,000' AGL

Feb-29@
16:00 UTC

Feb-29 @ 16:00 UTC

Mar-1@
06:00 UTC

Mar-1 @ 06:00 UTC

BECMG 2916/2918 12005KT

Becoming

Becoming Conditions expected by Sat, Feb 29, 2020 @ 18:00 UTC

Wind
  • 120° at 5 KTS
Cloud Levels
  • Scattered at 2,000' AGL

Feb-29@
22:00 UTC

Feb-29 @ 22:00 UTC

Mar-1@
00:00 UTC

Mar-1 @ 00:00 UTC

PROB30 2922/0100 4000 HZ BKN008

Probable - 30% Likelihood

Probable - 30% Likelihood during this time.

Conditions
Haze
Cloud Levels
  • Broken at 800' AGL

Mar-1@
00:00 UTC

Mar-1 @ 00:00 UTC

Mar-1@
05:00 UTC

Mar-1 @ 05:00 UTC

PROB30 0100/0105 1500 BR BKN003

Probable - 30% Likelihood

Probable - 30% Likelihood during this time.

Conditions
Mist
Cloud Levels
  • Broken at 300' AGL